Cardiff By The Sea, California
Current Conditions -  °F | °C
As of 11:53 PM on Wednesday 26 Nov 2014 (Local Time) from KCRQ Reporting Station
Clear Clear  
Wind Chill: 61°   Ceiling: Unl
Heat Index: 61°   Visibility: 10mi
Dew Point: 30°   Wind: 0mph
Humidity: 31%   Direction: NA
Pressure: 30.1"   Gusts: NA
Location:  33.02°N, 117.28°W
Report Text: KCRQ 270753Z AUTO 00000KT 10SM CLR 16/M01 A3010 RMK AO2 SLP191 T01611011 402610106 TSNO
Loading
Personal Weather Stations






























Interactive Weather Map New forecast layout! Learn more

10-Day Weather Forecast

Advertisements
Track Severe Weather on mobile